sensor_id;sensor_type;location;lat;lon;timestamp;P1;durP1;ratioP1;P2;durP2;ratioP2
25109;SDS011;13507;49.030;11.940;2023-02-04T00:00:54;1.35;;;0.60;;
25109;SDS011;13507;49.030;11.940;2023-02-04T00:02:16;0.90;;;0.60;;
25109;SDS011;13507;49.030;11.940;2023-02-04T00:03:38;1.25;;;0.82;;
25109;SDS011;13507;49.030;11.940;2023-02-04T00:05:00;1.13;;;0.50;;
25109;SDS011;13507;49.030;11.940;2023-02-04T00:06:21;0.70;;;0.50;;
25109;SDS011;13507;49.030;11.940;2023-02-04T00:07:43;1.45;;;0.80;;
25109;SDS011;13507;49.030;11.940;2023-02-04T00:09:04;1.85;;;0.50;;
25109;SDS011;13507;49.030;11.940;2023-02-04T00:11:47;1.38;;;0.50;;
25109;SDS011;13507;49.030;11.940;2023-02-04T00:13:12;1.05;;;0.60;;
25109;SDS011;13507;49.030;11.940;2023-02-04T00:14:39;0.90;;;0.70;;
25109;SDS011;13507;49.030;11.940;2023-02-04T00:16:01;1.10;;;0.60;;
25109;SDS011;13507;49.030;11.940;2023-02-04T00:17:22;0.88;;;0.57;;
25109;SDS011;13507;49.030;11.940;2023-02-04T00:18:46;0.90;;;0.45;;
25109;SDS011;13507;49.030;11.940;2023-02-04T00:20:08;2.83;;;0.60;;
25109;SDS011;13507;49.030;11.940;2023-02-04T00:21:30;1.42;;;0.60;;
25109;SDS011;13507;49.030;11.940;2023-02-04T00:22:54;0.75;;;0.68;;
25109;SDS011;13507;49.030;11.940;2023-02-04T00:24:18;0.95;;;0.60;;
25109;SDS011;13507;49.030;11.940;2023-02-04T00:27:04;0.57;;;0.50;;
25109;SDS011;13507;49.030;11.940;2023-02-04T00:28:28;1.38;;;0.50;;
25109;SDS011;13507;49.030;11.940;2023-02-04T00:29:50;1.10;;;0.60;;
25109;SDS011;13507;49.030;11.940;2023-02-04T00:31:12;3.28;;;0.60;;
25109;SDS011;13507;49.030;11.940;2023-02-04T00:32:33;1.73;;;0.47;;
25109;SDS011;13507;49.030;11.940;2023-02-04T00:33:57;1.30;;;0.60;;
25109;SDS011;13507;49.030;11.940;2023-02-04T00:35:18;2.63;;;0.60;;
25109;SDS011;13507;49.030;11.940;2023-02-04T00:36:46;2.00;;;0.80;;
25109;SDS011;13507;49.030;11.940;2023-02-04T00:38:09;1.42;;;0.55;;
25109;SDS011;13507;49.030;11.940;2023-02-04T00:39:45;0.85;;;0.60;;
25109;SDS011;13507;49.030;11.940;2023-02-04T00:41:09;0.73;;;0.52;;
25109;SDS011;13507;49.030;11.940;2023-02-04T00:42:32;1.30;;;0.70;;
25109;SDS011;13507;49.030;11.940;2023-02-04T00:43:56;0.98;;;0.70;;
25109;SDS011;13507;49.030;11.940;2023-02-04T00:45:17;0.73;;;0.50;;
25109;SDS011;13507;49.030;11.940;2023-02-04T00:46:39;1.30;;;0.77;;
25109;SDS011;13507;49.030;11.940;2023-02-04T00:48:01;0.93;;;0.60;;
25109;SDS011;13507;49.030;11.940;2023-02-04T00:49:26;0.98;;;0.55;;
25109;SDS011;13507;49.030;11.940;2023-02-04T00:50:49;0.75;;;0.60;;
25109;SDS011;13507;49.030;11.940;2023-02-04T00:53:31;1.05;;;0.60;;
25109;SDS011;13507;49.030;11.940;2023-02-04T00:56:15;1.38;;;0.60;;
25109;SDS011;13507;49.030;11.940;2023-02-04T00:57:36;1.23;;;0.60;;
25109;SDS011;13507;49.030;11.940;2023-02-04T00:59:01;0.70;;;0.60;;
25109;SDS011;13507;49.030;11.940;2023-02-04T01:00:23;0.80;;;0.52;;
25109;SDS011;13507;49.030;11.940;2023-02-04T01:01:44;1.15;;;0.80;;
25109;SDS011;13507;49.030;11.940;2023-02-04T01:03:07;2.30;;;0.55;;
25109;SDS011;13507;49.030;11.940;2023-02-04T01:04:28;1.00;;;0.68;;
25109;SDS011;13507;49.030;11.940;2023-02-04T01:05:52;1.23;;;0.60;;
25109;SDS011;13507;49.030;11.940;2023-02-04T01:07:17;1.00;;;0.70;;
25109;SDS011;13507;49.030;11.940;2023-02-04T01:08:56;1.58;;;0.63;;
25109;SDS011;13507;49.030;11.940;2023-02-04T01:10:27;1.60;;;0.70;;
25109;SDS011;13507;49.030;11.940;2023-02-04T01:11:57;1.27;;;0.55;;
25109;SDS011;13507;49.030;11.940;2023-02-04T01:13:18;1.58;;;0.77;;
25109;SDS011;13507;49.030;11.940;2023-02-04T01:14:42;0.95;;;0.50;;
25109;SDS011;13507;49.030;11.940;2023-02-04T01:20:45;0.70;;;0.50;;
25109;SDS011;13507;49.030;11.940;2023-02-04T01:22:22;0.93;;;0.40;;
25109;SDS011;13507;49.030;11.940;2023-02-04T01:23:43;0.40;;;0.40;;
25109;SDS011;13507;49.030;11.940;2023-02-04T01:25:04;1.58;;;0.68;;
25109;SDS011;13507;49.030;11.940;2023-02-04T01:26:36;0.85;;;0.60;;
25109;SDS011;13507;49.030;11.940;2023-02-04T01:27:57;1.17;;;0.57;;
25109;SDS011;13507;49.030;11.940;2023-02-04T01:29:19;2.30;;;0.60;;
25109;SDS011;13507;49.030;11.940;2023-02-04T01:30:46;0.82;;;0.60;;
25109;SDS011;13507;49.030;11.940;2023-02-04T01:32:07;1.00;;;0.45;;
25109;SDS011;13507;49.030;11.940;2023-02-04T01:33:31;1.23;;;0.60;;
25109;SDS011;13507;49.030;11.940;2023-02-04T01:34:53;1.65;;;0.50;;
25109;SDS011;13507;49.030;11.940;2023-02-04T01:36:16;0.60;;;0.50;;
25109;SDS011;13507;49.030;11.940;2023-02-04T01:37:38;1.08;;;0.70;;
25109;SDS011;13507;49.030;11.940;2023-02-04T01:39:00;0.93;;;0.60;;
25109;SDS011;13507;49.030;11.940;2023-02-04T01:40:21;0.50;;;0.50;;
25109;SDS011;13507;49.030;11.940;2023-02-04T01:43:25;1.45;;;0.57;;
25109;SDS011;13507;49.030;11.940;2023-02-04T01:44:49;0.73;;;0.55;;
25109;SDS011;13507;49.030;11.940;2023-02-04T01:46:14;1.20;;;0.60;;
25109;SDS011;13507;49.030;11.940;2023-02-04T01:47:36;2.20;;;0.57;;
25109;SDS011;13507;49.030;11.940;2023-02-04T01:49:02;1.52;;;0.60;;
25109;SDS011;13507;49.030;11.940;2023-02-04T01:50:29;1.10;;;0.50;;
25109;SDS011;13507;49.030;11.940;2023-02-04T01:54:39;2.03;;;0.85;;
25109;SDS011;13507;49.030;11.940;2023-02-04T01:56:05;2.22;;;0.50;;
25109;SDS011;13507;49.030;11.940;2023-02-04T01:57:34;1.02;;;0.57;;
25109;SDS011;13507;49.030;11.940;2023-02-04T01:58:56;0.50;;;0.50;;
25109;SDS011;13507;49.030;11.940;2023-02-04T02:00:22;1.05;;;0.75;;
25109;SDS011;13507;49.030;11.940;2023-02-04T02:01:49;0.88;;;0.60;;
25109;SDS011;13507;49.030;11.940;2023-02-04T02:03:24;1.27;;;0.60;;
25109;SDS011;13507;49.030;11.940;2023-02-04T02:04:52;0.80;;;0.50;;
25109;SDS011;13507;49.030;11.940;2023-02-04T02:06:18;0.80;;;0.50;;
25109;SDS011;13507;49.030;11.940;2023-02-04T02:07:40;1.63;;;0.68;;
25109;SDS011;13507;49.030;11.940;2023-02-04T02:09:02;1.38;;;0.77;;
25109;SDS011;13507;49.030;11.940;2023-02-04T02:10:24;1.02;;;0.60;;
25109;SDS011;13507;49.030;11.940;2023-02-04T02:11:45;1.17;;;0.65;;
25109;SDS011;13507;49.030;11.940;2023-02-04T02:14:51;1.00;;;0.57;;
25109;SDS011;13507;49.030;11.940;2023-02-04T02:16:13;0.85;;;0.55;;
25109;SDS011;13507;49.030;11.940;2023-02-04T02:17:41;1.05;;;0.70;;
25109;SDS011;13507;49.030;11.940;2023-02-04T02:19:05;1.17;;;0.60;;
25109;SDS011;13507;49.030;11.940;2023-02-04T02:20:33;0.45;;;0.45;;
25109;SDS011;13507;49.030;11.940;2023-02-04T02:21:55;1.10;;;0.50;;
25109;SDS011;13507;49.030;11.940;2023-02-04T02:23:23;0.68;;;0.50;;
25109;SDS011;13507;49.030;11.940;2023-02-04T02:24:53;1.88;;;0.65;;
25109;SDS011;13507;49.030;11.940;2023-02-04T02:26:17;1.10;;;0.63;;
25109;SDS011;13507;49.030;11.940;2023-02-04T02:27:40;0.73;;;0.57;;
25109;SDS011;13507;49.030;11.940;2023-02-04T02:29:02;1.75;;;0.60;;
25109;SDS011;13507;49.030;11.940;2023-02-04T02:30:24;0.70;;;0.52;;
25109;SDS011;13507;49.030;11.940;2023-02-04T02:31:50;1.23;;;0.50;;
25109;SDS011;13507;49.030;11.940;2023-02-04T02:33:15;1.02;;;0.60;;
25109;SDS011;13507;49.030;11.940;2023-02-04T02:34:38;0.80;;;0.50;;
25109;SDS011;13507;49.030;11.940;2023-02-04T02:36:21;1.10;;;0.70;;
25109;SDS011;13507;49.030;11.940;2023-02-04T02:37:43;0.85;;;0.60;;
25109;SDS011;13507;49.030;11.940;2023-02-04T02:40:53;0.80;;;0.70;;
25109;SDS011;13507;49.030;11.940;2023-02-04T02:42:16;1.17;;;0.50;;
25109;SDS011;13507;49.030;11.940;2023-02-04T02:43:41;1.83;;;0.70;;
25109;SDS011;13507;49.030;11.940;2023-02-04T02:45:07;1.08;;;0.50;;
25109;SDS011;13507;49.030;11.940;2023-02-04T02:46:36;1.05;;;0.52;;
25109;SDS011;13507;49.030;11.940;2023-02-04T02:47:58;0.95;;;0.50;;
25109;SDS011;13507;49.030;11.940;2023-02-04T02:49:21;1.33;;;0.77;;
25109;SDS011;13507;49.030;11.940;2023-02-04T02:50:42;1.60;;;0.80;;
25109;SDS011;13507;49.030;11.940;2023-02-04T02:52:04;0.80;;;0.63;;
25109;SDS011;13507;49.030;11.940;2023-02-04T02:53:26;0.60;;;0.50;;
25109;SDS011;13507;49.030;11.940;2023-02-04T02:54:48;2.60;;;0.73;;
25109;SDS011;13507;49.030;11.940;2023-02-04T02:56:18;1.10;;;0.55;;
25109;SDS011;13507;49.030;11.940;2023-02-04T02:57:40;1.25;;;0.60;;
25109;SDS011;13507;49.030;11.940;2023-02-04T02:59:11;0.65;;;0.60;;
25109;SDS011;13507;49.030;11.940;2023-02-04T03:00:33;1.45;;;0.70;;
25109;SDS011;13507;49.030;11.940;2023-02-04T03:03:19;1.40;;;0.60;;
25109;SDS011;13507;49.030;11.940;2023-02-04T03:04:43;1.05;;;0.65;;
25109;SDS011;13507;49.030;11.940;2023-02-04T03:06:13;1.48;;;0.50;;
25109;SDS011;13507;49.030;11.940;2023-02-04T03:07:37;1.77;;;0.63;;
25109;SDS011;13507;49.030;11.940;2023-02-04T03:10:28;2.47;;;0.60;;
25109;SDS011;13507;49.030;11.940;2023-02-04T03:11:53;1.00;;;0.68;;
25109;SDS011;13507;49.030;11.940;2023-02-04T03:13:15;0.63;;;0.50;;
25109;SDS011;13507;49.030;11.940;2023-02-04T03:14:40;1.00;;;0.45;;
25109;SDS011;13507;49.030;11.940;2023-02-04T03:16:04;1.15;;;0.70;;
25109;SDS011;13507;49.030;11.940;2023-02-04T03:17:27;0.85;;;0.55;;
25109;SDS011;13507;49.030;11.940;2023-02-04T03:18:49;1.02;;;0.60;;
25109;SDS011;13507;49.030;11.940;2023-02-04T03:20:10;0.90;;;0.70;;
25109;SDS011;13507;49.030;11.940;2023-02-04T03:21:36;1.35;;;0.60;;
25109;SDS011;13507;49.030;11.940;2023-02-04T03:24:51;1.23;;;0.70;;
25109;SDS011;13507;49.030;11.940;2023-02-04T03:26:15;1.23;;;0.70;;
25109;SDS011;13507;49.030;11.940;2023-02-04T03:27:41;1.63;;;0.70;;
25109;SDS011;13507;49.030;11.940;2023-02-04T03:29:05;1.08;;;0.50;;
25109;SDS011;13507;49.030;11.940;2023-02-04T03:30:34;0.98;;;0.60;;
25109;SDS011;13507;49.030;11.940;2023-02-04T03:31:55;0.75;;;0.50;;
25109;SDS011;13507;49.030;11.940;2023-02-04T03:33:30;1.45;;;0.60;;
25109;SDS011;13507;49.030;11.940;2023-02-04T03:34:52;0.73;;;0.55;;
25109;SDS011;13507;49.030;11.940;2023-02-04T03:36:13;1.15;;;0.60;;
25109;SDS011;13507;49.030;11.940;2023-02-04T03:38:57;0.75;;;0.50;;
25109;SDS011;13507;49.030;11.940;2023-02-04T03:40:29;0.47;;;0.40;;
25109;SDS011;13507;49.030;11.940;2023-02-04T03:41:55;0.80;;;0.50;;
25109;SDS011;13507;49.030;11.940;2023-02-04T03:43:19;2.53;;;0.75;;
25109;SDS011;13507;49.030;11.940;2023-02-04T03:44:41;1.27;;;0.57;;
25109;SDS011;13507;49.030;11.940;2023-02-04T03:46:02;1.05;;;0.68;;
25109;SDS011;13507;49.030;11.940;2023-02-04T03:47:23;1.13;;;0.60;;
25109;SDS011;13507;49.030;11.940;2023-02-04T03:48:45;0.90;;;0.60;;
25109;SDS011;13507;49.030;11.940;2023-02-04T03:50:06;0.73;;;0.50;;
25109;SDS011;13507;49.030;11.940;2023-02-04T03:54:49;0.80;;;0.60;;
25109;SDS011;13507;49.030;11.940;2023-02-04T03:56:11;0.70;;;0.52;;
25109;SDS011;13507;49.030;11.940;2023-02-04T03:57:32;1.17;;;0.70;;
25109;SDS011;13507;49.030;11.940;2023-02-04T03:58:59;1.65;;;0.50;;
25109;SDS011;13507;49.030;11.940;2023-02-04T04:00:23;1.90;;;0.63;;
25109;SDS011;13507;49.030;11.940;2023-02-04T04:01:45;2.50;;;0.55;;
25109;SDS011;13507;49.030;11.940;2023-02-04T04:03:06;1.92;;;0.60;;
25109;SDS011;13507;49.030;11.940;2023-02-04T04:04:28;0.93;;;0.60;;
25109;SDS011;13507;49.030;11.940;2023-02-04T04:05:49;1.30;;;0.60;;
25109;SDS011;13507;49.030;11.940;2023-02-04T04:07:11;1.17;;;0.70;;
25109;SDS011;13507;49.030;11.940;2023-02-04T04:09:55;0.80;;;0.50;;
25109;SDS011;13507;49.030;11.940;2023-02-04T04:11:19;1.17;;;0.68;;
25109;SDS011;13507;49.030;11.940;2023-02-04T04:12:40;1.77;;;0.57;;
25109;SDS011;13507;49.030;11.940;2023-02-04T04:14:05;1.13;;;0.55;;
25109;SDS011;13507;49.030;11.940;2023-02-04T04:15:26;0.93;;;0.60;;
25109;SDS011;13507;49.030;11.940;2023-02-04T04:16:47;0.55;;;0.47;;
25109;SDS011;13507;49.030;11.940;2023-02-04T04:19:29;0.95;;;0.57;;
25109;SDS011;13507;49.030;11.940;2023-02-04T04:20:51;0.77;;;0.40;;
25109;SDS011;13507;49.030;11.940;2023-02-04T04:22:12;2.22;;;0.50;;
25109;SDS011;13507;49.030;11.940;2023-02-04T04:23:33;1.08;;;0.68;;
25109;SDS011;13507;49.030;11.940;2023-02-04T04:26:15;0.98;;;0.50;;
25109;SDS011;13507;49.030;11.940;2023-02-04T04:29:15;0.70;;;0.57;;
25109;SDS011;13507;49.030;11.940;2023-02-04T04:30:37;0.90;;;0.60;;
25109;SDS011;13507;49.030;11.940;2023-02-04T04:31:58;0.80;;;0.50;;
25109;SDS011;13507;49.030;11.940;2023-02-04T04:33:23;1.02;;;0.65;;
25109;SDS011;13507;49.030;11.940;2023-02-04T04:34:44;0.70;;;0.60;;
25109;SDS011;13507;49.030;11.940;2023-02-04T04:36:06;1.05;;;0.50;;
25109;SDS011;13507;49.030;11.940;2023-02-04T04:37:28;0.95;;;0.60;;
25109;SDS011;13507;49.030;11.940;2023-02-04T04:38:49;1.05;;;0.60;;
25109;SDS011;13507;49.030;11.940;2023-02-04T04:40:11;1.25;;;0.60;;
25109;SDS011;13507;49.030;11.940;2023-02-04T04:41:47;0.90;;;0.43;;
25109;SDS011;13507;49.030;11.940;2023-02-04T04:43:09;0.73;;;0.40;;
25109;SDS011;13507;49.030;11.940;2023-02-04T04:44:33;1.08;;;0.45;;
25109;SDS011;13507;49.030;11.940;2023-02-04T04:45:54;2.33;;;0.85;;
25109;SDS011;13507;49.030;11.940;2023-02-04T04:47:16;1.35;;;0.52;;
25109;SDS011;13507;49.030;11.940;2023-02-04T04:48:38;0.80;;;0.50;;
25109;SDS011;13507;49.030;11.940;2023-02-04T04:49:59;2.10;;;0.65;;
25109;SDS011;13507;49.030;11.940;2023-02-04T04:52:52;1.05;;;0.57;;
25109;SDS011;13507;49.030;11.940;2023-02-04T04:54:14;0.55;;;0.50;;
25109;SDS011;13507;49.030;11.940;2023-02-04T04:55:35;1.95;;;0.60;;
25109;SDS011;13507;49.030;11.940;2023-02-04T04:56:56;3.20;;;0.70;;
25109;SDS011;13507;49.030;11.940;2023-02-04T04:59:41;3.00;;;0.60;;
25109;SDS011;13507;49.030;11.940;2023-02-04T05:01:03;1.95;;;0.70;;
25109;SDS011;13507;49.030;11.940;2023-02-04T05:02:25;0.95;;;0.50;;
25109;SDS011;13507;49.030;11.940;2023-02-04T05:03:46;0.95;;;0.70;;
25109;SDS011;13507;49.030;11.940;2023-02-04T05:05:08;1.05;;;0.60;;
25109;SDS011;13507;49.030;11.940;2023-02-04T05:06:30;1.58;;;0.70;;
25109;SDS011;13507;49.030;11.940;2023-02-04T05:09:12;0.90;;;0.55;;
25109;SDS011;13507;49.030;11.940;2023-02-04T05:10:33;1.58;;;0.50;;
25109;SDS011;13507;49.030;11.940;2023-02-04T05:11:54;3.05;;;0.80;;
25109;SDS011;13507;49.030;11.940;2023-02-04T05:13:15;0.85;;;0.55;;
25109;SDS011;13507;49.030;11.940;2023-02-04T05:16:00;0.80;;;0.50;;
25109;SDS011;13507;49.030;11.940;2023-02-04T05:17:23;1.10;;;0.40;;
25109;SDS011;13507;49.030;11.940;2023-02-04T05:18:45;0.95;;;0.50;;
25109;SDS011;13507;49.030;11.940;2023-02-04T05:20:07;1.08;;;0.65;;
25109;SDS011;13507;49.030;11.940;2023-02-04T05:21:29;1.45;;;0.70;;
25109;SDS011;13507;49.030;11.940;2023-02-04T05:22:50;0.90;;;0.50;;
25109;SDS011;13507;49.030;11.940;2023-02-04T05:25:39;0.70;;;0.50;;
25109;SDS011;13507;49.030;11.940;2023-02-04T05:27:00;1.45;;;0.63;;
25109;SDS011;13507;49.030;11.940;2023-02-04T05:28:23;1.17;;;0.60;;
25109;SDS011;13507;49.030;11.940;2023-02-04T05:29:44;1.65;;;0.60;;
25109;SDS011;13507;49.030;11.940;2023-02-04T05:31:08;2.08;;;0.50;;
25109;SDS011;13507;49.030;11.940;2023-02-04T05:32:30;1.20;;;0.68;;
25109;SDS011;13507;49.030;11.940;2023-02-04T05:34:09;1.27;;;0.70;;
25109;SDS011;13507;49.030;11.940;2023-02-04T05:35:30;2.58;;;0.60;;
25109;SDS011;13507;49.030;11.940;2023-02-04T05:36:51;0.85;;;0.50;;
25109;SDS011;13507;49.030;11.940;2023-02-04T05:38:15;1.30;;;0.60;;
25109;SDS011;13507;49.030;11.940;2023-02-04T05:39:36;1.02;;;0.63;;
25109;SDS011;13507;49.030;11.940;2023-02-04T05:40:57;1.73;;;0.60;;
25109;SDS011;13507;49.030;11.940;2023-02-04T05:42:22;1.85;;;0.80;;
25109;SDS011;13507;49.030;11.940;2023-02-04T05:43:46;1.52;;;0.65;;
25109;SDS011;13507;49.030;11.940;2023-02-04T05:45:08;1.48;;;0.70;;
25109;SDS011;13507;49.030;11.940;2023-02-04T05:46:37;1.58;;;0.60;;
25109;SDS011;13507;49.030;11.940;2023-02-04T05:47:58;1.05;;;0.57;;
25109;SDS011;13507;49.030;11.940;2023-02-04T05:49:28;0.77;;;0.55;;
25109;SDS011;13507;49.030;11.940;2023-02-04T05:50:52;0.88;;;0.50;;
25109;SDS011;13507;49.030;11.940;2023-02-04T05:53:34;0.85;;;0.68;;
25109;SDS011;13507;49.030;11.940;2023-02-04T05:54:58;0.93;;;0.50;;
25109;SDS011;13507;49.030;11.940;2023-02-04T05:56:20;0.70;;;0.57;;
25109;SDS011;13507;49.030;11.940;2023-02-04T05:59:16;1.00;;;0.60;;
25109;SDS011;13507;49.030;11.940;2023-02-04T06:00:38;0.70;;;0.40;;
25109;SDS011;13507;49.030;11.940;2023-02-04T06:02:02;1.38;;;0.60;;
25109;SDS011;13507;49.030;11.940;2023-02-04T06:03:23;0.63;;;0.52;;
25109;SDS011;13507;49.030;11.940;2023-02-04T06:04:47;1.63;;;0.80;;
25109;SDS011;13507;49.030;11.940;2023-02-04T06:06:09;0.85;;;0.63;;
25109;SDS011;13507;49.030;11.940;2023-02-04T06:07:31;1.27;;;0.65;;
25109;SDS011;13507;49.030;11.940;2023-02-04T06:10:12;0.85;;;0.65;;
25109;SDS011;13507;49.030;11.940;2023-02-04T06:11:34;1.17;;;0.60;;
25109;SDS011;13507;49.030;11.940;2023-02-04T06:12:55;0.90;;;0.60;;
25109;SDS011;13507;49.030;11.940;2023-02-04T06:14:17;0.85;;;0.47;;
25109;SDS011;13507;49.030;11.940;2023-02-04T06:15:38;0.88;;;0.63;;
25109;SDS011;13507;49.030;11.940;2023-02-04T06:17:04;1.40;;;0.80;;
25109;SDS011;13507;49.030;11.940;2023-02-04T06:18:26;1.10;;;0.60;;
25109;SDS011;13507;49.030;11.940;2023-02-04T06:19:48;0.90;;;0.73;;
25109;SDS011;13507;49.030;11.940;2023-02-04T06:21:09;1.08;;;0.65;;
25109;SDS011;13507;49.030;11.940;2023-02-04T06:22:33;1.67;;;0.70;;
25109;SDS011;13507;49.030;11.940;2023-02-04T06:23:55;0.90;;;0.70;;
25109;SDS011;13507;49.030;11.940;2023-02-04T06:26:37;0.50;;;0.50;;
25109;SDS011;13507;49.030;11.940;2023-02-04T06:28:10;1.13;;;0.50;;
25109;SDS011;13507;49.030;11.940;2023-02-04T06:29:41;0.73;;;0.60;;
25109;SDS011;13507;49.030;11.940;2023-02-04T06:32:46;1.25;;;0.70;;
25109;SDS011;13507;49.030;11.940;2023-02-04T06:34:09;1.00;;;0.47;;
25109;SDS011;13507;49.030;11.940;2023-02-04T06:35:31;0.77;;;0.60;;
25109;SDS011;13507;49.030;11.940;2023-02-04T06:36:52;1.50;;;0.70;;
25109;SDS011;13507;49.030;11.940;2023-02-04T06:38:14;1.08;;;0.68;;
25109;SDS011;13507;49.030;11.940;2023-02-04T06:39:35;0.75;;;0.47;;
25109;SDS011;13507;49.030;11.940;2023-02-04T06:40:59;0.50;;;0.50;;
25109;SDS011;13507;49.030;11.940;2023-02-04T06:42:20;0.68;;;0.60;;
25109;SDS011;13507;49.030;11.940;2023-02-04T06:43:41;0.77;;;0.60;;
25109;SDS011;13507;49.030;11.940;2023-02-04T06:46:41;1.13;;;0.60;;
25109;SDS011;13507;49.030;11.940;2023-02-04T06:48:05;1.15;;;0.60;;
25109;SDS011;13507;49.030;11.940;2023-02-04T06:51:24;0.95;;;0.60;;
25109;SDS011;13507;49.030;11.940;2023-02-04T06:52:49;0.98;;;0.52;;
25109;SDS011;13507;49.030;11.940;2023-02-04T06:54:10;0.88;;;0.45;;
25109;SDS011;13507;49.030;11.940;2023-02-04T06:55:32;1.08;;;0.55;;
25109;SDS011;13507;49.030;11.940;2023-02-04T06:56:53;1.58;;;0.63;;
25109;SDS011;13507;49.030;11.940;2023-02-04T06:58:15;1.00;;;0.60;;
25109;SDS011;13507;49.030;11.940;2023-02-04T06:59:37;1.80;;;0.85;;
25109;SDS011;13507;49.030;11.940;2023-02-04T07:01:00;0.55;;;0.30;;
25109;SDS011;13507;49.030;11.940;2023-02-04T07:02:24;0.68;;;0.57;;
25109;SDS011;13507;49.030;11.940;2023-02-04T07:03:47;0.55;;;0.40;;
25109;SDS011;13507;49.030;11.940;2023-02-04T07:05:09;1.35;;;0.65;;
25109;SDS011;13507;49.030;11.940;2023-02-04T07:06:31;0.90;;;0.60;;
25109;SDS011;13507;49.030;11.940;2023-02-04T07:07:52;2.88;;;0.73;;
25109;SDS011;13507;49.030;11.940;2023-02-04T07:09:13;1.00;;;0.50;;
25109;SDS011;13507;49.030;11.940;2023-02-04T07:10:34;1.20;;;0.75;;
25109;SDS011;13507;49.030;11.940;2023-02-04T07:11:59;0.60;;;0.52;;
25109;SDS011;13507;49.030;11.940;2023-02-04T07:13:20;0.85;;;0.50;;
25109;SDS011;13507;49.030;11.940;2023-02-04T07:14:44;1.70;;;0.63;;
25109;SDS011;13507;49.030;11.940;2023-02-04T07:16:08;1.48;;;0.70;;
25109;SDS011;13507;49.030;11.940;2023-02-04T07:17:32;1.15;;;0.60;;
25109;SDS011;13507;49.030;11.940;2023-02-04T07:20:31;0.52;;;0.52;;
25109;SDS011;13507;49.030;11.940;2023-02-04T07:21:53;1.25;;;0.43;;
25109;SDS011;13507;49.030;11.940;2023-02-04T07:23:26;0.82;;;0.57;;
25109;SDS011;13507;49.030;11.940;2023-02-04T07:24:51;0.90;;;0.50;;
25109;SDS011;13507;49.030;11.940;2023-02-04T07:26:13;1.15;;;0.60;;
25109;SDS011;13507;49.030;11.940;2023-02-04T07:27:34;1.52;;;0.50;;
25109;SDS011;13507;49.030;11.940;2023-02-04T07:28:56;1.05;;;0.50;;
25109;SDS011;13507;49.030;11.940;2023-02-04T07:30:22;1.33;;;0.55;;
25109;SDS011;13507;49.030;11.940;2023-02-04T07:31:46;1.50;;;0.65;;
25109;SDS011;13507;49.030;11.940;2023-02-04T07:33:08;0.75;;;0.40;;
25109;SDS011;13507;49.030;11.940;2023-02-04T07:34:32;0.63;;;0.50;;
25109;SDS011;13507;49.030;11.940;2023-02-04T07:35:54;1.00;;;0.50;;
25109;SDS011;13507;49.030;11.940;2023-02-04T07:37:22;1.23;;;0.60;;
25109;SDS011;13507;49.030;11.940;2023-02-04T07:38:46;0.98;;;0.60;;
25109;SDS011;13507;49.030;11.940;2023-02-04T07:40:08;1.13;;;0.70;;
25109;SDS011;13507;49.030;11.940;2023-02-04T07:43:36;0.60;;;0.40;;
25109;SDS011;13507;49.030;11.940;2023-02-04T07:46:30;1.05;;;0.50;;
25109;SDS011;13507;49.030;11.940;2023-02-04T07:47:54;1.45;;;0.65;;
25109;SDS011;13507;49.030;11.940;2023-02-04T07:50:54;1.00;;;0.57;;
25109;SDS011;13507;49.030;11.940;2023-02-04T07:52:16;2.53;;;0.50;;
25109;SDS011;13507;49.030;11.940;2023-02-04T07:53:40;1.48;;;0.50;;
25109;SDS011;13507;49.030;11.940;2023-02-04T07:56:23;1.25;;;0.50;;
25109;SDS011;13507;49.030;11.940;2023-02-04T07:59:23;0.57;;;0.47;;
25109;SDS011;13507;49.030;11.940;2023-02-04T08:00:44;0.40;;;0.40;;
25109;SDS011;13507;49.030;11.940;2023-02-04T08:02:06;3.13;;;0.70;;
25109;SDS011;13507;49.030;11.940;2023-02-04T08:03:27;4.03;;;0.82;;
25109;SDS011;13507;49.030;11.940;2023-02-04T08:04:48;1.73;;;0.80;;
25109;SDS011;13507;49.030;11.940;2023-02-04T08:06:12;3.03;;;0.80;;
25109;SDS011;13507;49.030;11.940;2023-02-04T08:07:34;4.68;;;0.68;;
25109;SDS011;13507;49.030;11.940;2023-02-04T08:08:55;2.70;;;0.50;;
25109;SDS011;13507;49.030;11.940;2023-02-04T08:11:39;2.15;;;0.90;;
25109;SDS011;13507;49.030;11.940;2023-02-04T08:13:01;2.85;;;1.10;;
25109;SDS011;13507;49.030;11.940;2023-02-04T08:14:22;1.65;;;0.70;;
25109;SDS011;13507;49.030;11.940;2023-02-04T08:15:43;2.88;;;0.60;;
25109;SDS011;13507;49.030;11.940;2023-02-04T08:17:05;7.22;;;0.80;;
25109;SDS011;13507;49.030;11.940;2023-02-04T08:18:27;3.58;;;0.93;;
25109;SDS011;13507;49.030;11.940;2023-02-04T08:21:09;5.45;;;0.85;;
25109;SDS011;13507;49.030;11.940;2023-02-04T08:22:33;2.10;;;0.80;;
25109;SDS011;13507;49.030;11.940;2023-02-04T08:23:55;2.08;;;1.00;;
25109;SDS011;13507;49.030;11.940;2023-02-04T08:25:19;5.80;;;0.90;;
25109;SDS011;13507;49.030;11.940;2023-02-04T08:28:02;2.05;;;0.90;;
25109;SDS011;13507;49.030;11.940;2023-02-04T08:29:24;2.97;;;0.93;;
25109;SDS011;13507;49.030;11.940;2023-02-04T08:30:46;5.53;;;1.05;;
25109;SDS011;13507;49.030;11.940;2023-02-04T08:33:56;2.65;;;1.00;;
25109;SDS011;13507;49.030;11.940;2023-02-04T08:35:17;2.45;;;1.00;;
25109;SDS011;13507;49.030;11.940;2023-02-04T08:36:39;1.95;;;0.80;;
25109;SDS011;13507;49.030;11.940;2023-02-04T08:38:05;3.60;;;0.90;;
25109;SDS011;13507;49.030;11.940;2023-02-04T08:39:29;1.73;;;0.80;;
25109;SDS011;13507;49.030;11.940;2023-02-04T08:40:51;3.28;;;0.90;;
25109;SDS011;13507;49.030;11.940;2023-02-04T08:42:12;2.55;;;0.77;;
25109;SDS011;13507;49.030;11.940;2023-02-04T08:43:34;1.65;;;0.77;;
25109;SDS011;13507;49.030;11.940;2023-02-04T08:44:58;3.85;;;0.90;;
25109;SDS011;13507;49.030;11.940;2023-02-04T08:46:20;1.80;;;0.82;;
25109;SDS011;13507;49.030;11.940;2023-02-04T08:47:41;4.20;;;0.90;;
25109;SDS011;13507;49.030;11.940;2023-02-04T08:49:03;3.67;;;0.90;;
25109;SDS011;13507;49.030;11.940;2023-02-04T08:50:25;3.70;;;1.05;;
25109;SDS011;13507;49.030;11.940;2023-02-04T08:51:49;1.95;;;0.73;;
25109;SDS011;13507;49.030;11.940;2023-02-04T08:53:17;2.15;;;0.75;;
25109;SDS011;13507;49.030;11.940;2023-02-04T08:54:39;3.25;;;0.88;;
25109;SDS011;13507;49.030;11.940;2023-02-04T08:56:00;4.90;;;0.80;;
25109;SDS011;13507;49.030;11.940;2023-02-04T08:57:21;4.07;;;1.05;;
25109;SDS011;13507;49.030;11.940;2023-02-04T08:58:46;4.78;;;1.13;;
25109;SDS011;13507;49.030;11.940;2023-02-04T09:00:09;5.25;;;1.20;;
25109;SDS011;13507;49.030;11.940;2023-02-04T09:01:32;5.78;;;1.02;;
25109;SDS011;13507;49.030;11.940;2023-02-04T09:02:53;6.15;;;1.33;;
25109;SDS011;13507;49.030;11.940;2023-02-04T09:04:16;7.90;;;1.10;;
25109;SDS011;13507;49.030;11.940;2023-02-04T09:05:38;9.57;;;1.73;;
25109;SDS011;13507;49.030;11.940;2023-02-04T09:06:59;8.05;;;1.67;;
25109;SDS011;13507;49.030;11.940;2023-02-04T09:08:23;8.73;;;1.33;;
25109;SDS011;13507;49.030;11.940;2023-02-04T09:09:45;8.23;;;1.35;;
25109;SDS011;13507;49.030;11.940;2023-02-04T09:11:06;8.70;;;1.40;;
25109;SDS011;13507;49.030;11.940;2023-02-04T09:12:30;8.90;;;1.55;;
25109;SDS011;13507;49.030;11.940;2023-02-04T09:13:51;9.90;;;1.90;;
25109;SDS011;13507;49.030;11.940;2023-02-04T09:15:12;12.02;;;1.77;;
25109;SDS011;13507;49.030;11.940;2023-02-04T09:16:34;10.55;;;1.60;;
25109;SDS011;13507;49.030;11.940;2023-02-04T09:17:55;9.00;;;1.60;;
25109;SDS011;13507;49.030;11.940;2023-02-04T09:19:19;13.77;;;1.60;;
25109;SDS011;13507;49.030;11.940;2023-02-04T09:20:40;9.38;;;1.63;;